sensor_id;sensor_type;location;lat;lon;timestamp;P1;durP1;ratioP1;P2;durP2;ratioP2
69951;SDS011;60406;48.408;13.392;2022-10-30T00:02:48;24.65;;;17.92;;
69951;SDS011;60406;48.408;13.392;2022-10-30T00:07:49;26.55;;;17.48;;
69951;SDS011;60406;48.408;13.392;2022-10-30T00:12:50;31.00;;;21.95;;
69951;SDS011;60406;48.408;13.392;2022-10-30T00:17:50;27.55;;;20.00;;
69951;SDS011;60406;48.408;13.392;2022-10-30T00:22:51;23.80;;;15.60;;
69951;SDS011;60406;48.408;13.392;2022-10-30T00:27:52;26.63;;;17.33;;
69951;SDS011;60406;48.408;13.392;2022-10-30T00:32:53;27.63;;;19.30;;
69951;SDS011;60406;48.408;13.392;2022-10-30T00:37:54;32.42;;;19.25;;
69951;SDS011;60406;48.408;13.392;2022-10-30T00:42:55;36.13;;;22.73;;
69951;SDS011;60406;48.408;13.392;2022-10-30T00:47:59;37.08;;;21.15;;
69951;SDS011;60406;48.408;13.392;2022-10-30T00:53:02;30.45;;;21.02;;
69951;SDS011;60406;48.408;13.392;2022-10-30T00:58:07;44.13;;;23.63;;
69951;SDS011;60406;48.408;13.392;2022-10-30T01:03:09;43.63;;;22.60;;
69951;SDS011;60406;48.408;13.392;2022-10-30T01:08:10;32.95;;;20.75;;
69951;SDS011;60406;48.408;13.392;2022-10-30T01:13:11;40.92;;;20.90;;
69951;SDS011;60406;48.408;13.392;2022-10-30T01:18:31;28.98;;;17.75;;
69951;SDS011;60406;48.408;13.392;2022-10-30T01:23:44;33.20;;;18.92;;
69951;SDS011;60406;48.408;13.392;2022-10-30T01:39:17;20.10;;;12.65;;
69951;SDS011;60406;48.408;13.392;2022-10-30T01:44:25;25.45;;;13.80;;
69951;SDS011;60406;48.408;13.392;2022-10-30T01:49:32;25.08;;;13.00;;
69951;SDS011;60406;48.408;13.392;2022-10-30T01:54:46;27.35;;;14.55;;
69951;SDS011;60406;48.408;13.392;2022-10-30T02:04:55;28.70;;;13.70;;
69951;SDS011;60406;48.408;13.392;2022-10-30T02:09:56;25.15;;;13.55;;
69951;SDS011;60406;48.408;13.392;2022-10-30T02:14:57;27.67;;;15.18;;
69951;SDS011;60406;48.408;13.392;2022-10-30T02:19:59;22.27;;;14.05;;
69951;SDS011;60406;48.408;13.392;2022-10-30T02:25:00;27.55;;;15.73;;
69951;SDS011;60406;48.408;13.392;2022-10-30T02:30:01;23.05;;;14.35;;
69951;SDS011;60406;48.408;13.392;2022-10-30T02:35:02;17.65;;;11.90;;
69951;SDS011;60406;48.408;13.392;2022-10-30T02:40:04;25.63;;;14.40;;
69951;SDS011;60406;48.408;13.392;2022-10-30T02:45:05;23.50;;;15.20;;
69951;SDS011;60406;48.408;13.392;2022-10-30T02:50:07;21.20;;;13.82;;
69951;SDS011;60406;48.408;13.392;2022-10-30T02:55:08;20.35;;;12.18;;
69951;SDS011;60406;48.408;13.392;2022-10-30T03:00:09;17.95;;;13.05;;
69951;SDS011;60406;48.408;13.392;2022-10-30T03:05:10;22.35;;;14.80;;
69951;SDS011;60406;48.408;13.392;2022-10-30T03:10:11;20.67;;;13.07;;
69951;SDS011;60406;48.408;13.392;2022-10-30T03:15:12;20.40;;;13.15;;
69951;SDS011;60406;48.408;13.392;2022-10-30T03:20:13;22.63;;;16.40;;
69951;SDS011;60406;48.408;13.392;2022-10-30T03:25:14;25.02;;;18.20;;
69951;SDS011;60406;48.408;13.392;2022-10-30T03:30:15;26.13;;;17.13;;
69951;SDS011;60406;48.408;13.392;2022-10-30T03:35:16;21.45;;;14.35;;
69951;SDS011;60406;48.408;13.392;2022-10-30T03:40:17;22.90;;;15.70;;
69951;SDS011;60406;48.408;13.392;2022-10-30T03:45:17;25.65;;;16.15;;
69951;SDS011;60406;48.408;13.392;2022-10-30T03:50:18;17.20;;;13.38;;
69951;SDS011;60406;48.408;13.392;2022-10-30T03:55:19;28.45;;;15.63;;
69951;SDS011;60406;48.408;13.392;2022-10-30T04:00:20;25.33;;;16.42;;
69951;SDS011;60406;48.408;13.392;2022-10-30T04:05:22;35.83;;;17.83;;
69951;SDS011;60406;48.408;13.392;2022-10-30T04:10:23;35.25;;;18.70;;
69951;SDS011;60406;48.408;13.392;2022-10-30T04:15:24;30.08;;;16.00;;
69951;SDS011;60406;48.408;13.392;2022-10-30T04:20:25;29.92;;;17.40;;
69951;SDS011;60406;48.408;13.392;2022-10-30T04:25:26;24.10;;;17.15;;
69951;SDS011;60406;48.408;13.392;2022-10-30T04:30:27;22.02;;;16.73;;
69951;SDS011;60406;48.408;13.392;2022-10-30T04:35:29;20.67;;;17.27;;
69951;SDS011;60406;48.408;13.392;2022-10-30T04:40:32;22.52;;;17.58;;
69951;SDS011;60406;48.408;13.392;2022-10-30T04:45:35;27.75;;;16.67;;
69951;SDS011;60406;48.408;13.392;2022-10-30T04:50:36;22.55;;;17.05;;
69951;SDS011;60406;48.408;13.392;2022-10-30T04:55:37;89.68;;;18.95;;
69951;SDS011;60406;48.408;13.392;2022-10-30T05:00:38;42.78;;;20.55;;
69951;SDS011;60406;48.408;13.392;2022-10-30T05:05:39;34.17;;;20.73;;
69951;SDS011;60406;48.408;13.392;2022-10-30T05:10:40;33.50;;;19.08;;
69951;SDS011;60406;48.408;13.392;2022-10-30T05:15:41;29.52;;;18.35;;
69951;SDS011;60406;48.408;13.392;2022-10-30T05:20:42;114.50;;;23.38;;
69951;SDS011;60406;48.408;13.392;2022-10-30T05:25:43;161.70;;;24.33;;
69951;SDS011;60406;48.408;13.392;2022-10-30T05:30:43;130.65;;;24.33;;
69951;SDS011;60406;48.408;13.392;2022-10-30T05:35:44;232.52;;;26.52;;
69951;SDS011;60406;48.408;13.392;2022-10-30T05:40:45;181.10;;;24.73;;
69951;SDS011;60406;48.408;13.392;2022-10-30T05:45:49;254.55;;;24.98;;
69951;SDS011;60406;48.408;13.392;2022-10-30T05:50:50;250.97;;;26.13;;
69951;SDS011;60406;48.408;13.392;2022-10-30T05:55:50;187.80;;;24.02;;
69951;SDS011;60406;48.408;13.392;2022-10-30T06:00:56;188.13;;;30.63;;
69951;SDS011;60406;48.408;13.392;2022-10-30T06:05:57;90.72;;;24.58;;
69951;SDS011;60406;48.408;13.392;2022-10-30T06:10:58;50.80;;;23.40;;
69951;SDS011;60406;48.408;13.392;2022-10-30T06:15:58;39.25;;;20.20;;
69951;SDS011;60406;48.408;13.392;2022-10-30T06:20:59;37.58;;;24.25;;
69951;SDS011;60406;48.408;13.392;2022-10-30T06:26:00;57.53;;;16.13;;
69951;SDS011;60406;48.408;13.392;2022-10-30T06:31:01;49.47;;;19.20;;
69951;SDS011;60406;48.408;13.392;2022-10-30T06:36:02;70.30;;;19.92;;
69951;SDS011;60406;48.408;13.392;2022-10-30T06:41:03;75.65;;;19.27;;
69951;SDS011;60406;48.408;13.392;2022-10-30T06:46:04;87.00;;;19.58;;
69951;SDS011;60406;48.408;13.392;2022-10-30T06:51:05;53.33;;;14.82;;
69951;SDS011;60406;48.408;13.392;2022-10-30T06:56:07;41.60;;;15.30;;
69951;SDS011;60406;48.408;13.392;2022-10-30T07:01:08;16.67;;;14.95;;
69951;SDS011;60406;48.408;13.392;2022-10-30T07:06:09;35.20;;;13.18;;
69951;SDS011;60406;48.408;13.392;2022-10-30T07:11:10;38.00;;;15.48;;
69951;SDS011;60406;48.408;13.392;2022-10-30T07:16:11;55.60;;;15.35;;
69951;SDS011;60406;48.408;13.392;2022-10-30T07:21:12;59.20;;;14.25;;
69951;SDS011;60406;48.408;13.392;2022-10-30T07:26:13;39.38;;;14.43;;
69951;SDS011;60406;48.408;13.392;2022-10-30T07:31:13;21.13;;;14.00;;
69951;SDS011;60406;48.408;13.392;2022-10-30T07:36:14;18.85;;;13.20;;
69951;SDS011;60406;48.408;13.392;2022-10-30T07:41:18;19.27;;;13.57;;
69951;SDS011;60406;48.408;13.392;2022-10-30T07:46:19;12.73;;;11.43;;
69951;SDS011;60406;48.408;13.392;2022-10-30T07:51:20;14.32;;;12.85;;
69951;SDS011;60406;48.408;13.392;2022-10-30T07:56:21;14.13;;;11.95;;
69951;SDS011;60406;48.408;13.392;2022-10-30T08:01:22;12.07;;;10.93;;
69951;SDS011;60406;48.408;13.392;2022-10-30T08:06:23;13.05;;;11.10;;
69951;SDS011;60406;48.408;13.392;2022-10-30T08:11:23;21.00;;;10.88;;
69951;SDS011;60406;48.408;13.392;2022-10-30T08:16:24;12.05;;;10.85;;
69951;SDS011;60406;48.408;13.392;2022-10-30T08:21:25;14.75;;;10.70;;
69951;SDS011;60406;48.408;13.392;2022-10-30T08:26:26;22.23;;;11.30;;
69951;SDS011;60406;48.408;13.392;2022-10-30T08:31:27;13.88;;;12.27;;
69951;SDS011;60406;48.408;13.392;2022-10-30T08:36:28;18.10;;;12.40;;
69951;SDS011;60406;48.408;13.392;2022-10-30T08:41:29;20.42;;;14.20;;
69951;SDS011;60406;48.408;13.392;2022-10-30T08:46:30;21.63;;;14.93;;
69951;SDS011;60406;48.408;13.392;2022-10-30T08:51:31;21.15;;;13.25;;
69951;SDS011;60406;48.408;13.392;2022-10-30T08:56:33;20.65;;;14.05;;
69951;SDS011;60406;48.408;13.392;2022-10-30T09:01:34;26.55;;;14.77;;
69951;SDS011;60406;48.408;13.392;2022-10-30T09:06:34;19.60;;;13.70;;
69951;SDS011;60406;48.408;13.392;2022-10-30T09:11:35;24.95;;;13.23;;
69951;SDS011;60406;48.408;13.392;2022-10-30T09:16:36;21.40;;;14.35;;
69951;SDS011;60406;48.408;13.392;2022-10-30T09:21:37;26.77;;;13.10;;
69951;SDS011;60406;48.408;13.392;2022-10-30T09:26:38;21.48;;;13.52;;
69951;SDS011;60406;48.408;13.392;2022-10-30T09:31:39;20.25;;;14.23;;
69951;SDS011;60406;48.408;13.392;2022-10-30T09:36:40;23.17;;;13.82;;
69951;SDS011;60406;48.408;13.392;2022-10-30T09:52:19;24.45;;;12.52;;
69951;SDS011;60406;48.408;13.392;2022-10-30T09:57:34;16.73;;;11.68;;
69951;SDS011;60406;48.408;13.392;2022-10-30T10:08:22;19.17;;;11.38;;
69951;SDS011;60406;48.408;13.392;2022-10-30T10:13:49;14.70;;;10.57;;
69951;SDS011;60406;48.408;13.392;2022-10-30T10:18:55;21.42;;;11.50;;
69951;SDS011;60406;48.408;13.392;2022-10-30T10:23:58;19.15;;;11.00;;
69951;SDS011;60406;48.408;13.392;2022-10-30T10:50:28;17.67;;;10.52;;
69951;SDS011;60406;48.408;13.392;2022-10-30T10:55:32;18.23;;;10.57;;
69951;SDS011;60406;48.408;13.392;2022-10-30T11:00:34;19.13;;;10.50;;
69951;SDS011;60406;48.408;13.392;2022-10-30T11:05:47;20.63;;;10.02;;
69951;SDS011;60406;48.408;13.392;2022-10-30T11:10:54;14.98;;;9.80;;
69951;SDS011;60406;48.408;13.392;2022-10-30T11:21:14;19.45;;;9.48;;
69951;SDS011;60406;48.408;13.392;2022-10-30T11:36:58;18.98;;;9.05;;
69951;SDS011;60406;48.408;13.392;2022-10-30T11:42:15;16.23;;;8.18;;
69951;SDS011;60406;48.408;13.392;2022-10-30T11:47:18;19.42;;;7.55;;
69951;SDS011;60406;48.408;13.392;2022-10-30T11:52:20;14.77;;;7.70;;
69951;SDS011;60406;48.408;13.392;2022-10-30T11:57:35;17.08;;;6.70;;
69951;SDS011;60406;48.408;13.392;2022-10-30T12:02:42;16.85;;;7.93;;
69951;SDS011;60406;48.408;13.392;2022-10-30T12:07:43;17.90;;;5.88;;
69951;SDS011;60406;48.408;13.392;2022-10-30T12:12:44;21.17;;;9.02;;
69951;SDS011;60406;48.408;13.392;2022-10-30T12:17:54;14.90;;;5.53;;
69951;SDS011;60406;48.408;13.392;2022-10-30T12:23:07;16.20;;;5.82;;
69951;SDS011;60406;48.408;13.392;2022-10-30T12:28:13;19.80;;;6.18;;
69951;SDS011;60406;48.408;13.392;2022-10-30T12:33:17;12.43;;;5.57;;
69951;SDS011;60406;48.408;13.392;2022-10-30T12:38:31;14.45;;;5.78;;
69951;SDS011;60406;48.408;13.392;2022-10-30T12:48:36;19.52;;;6.15;;
69951;SDS011;60406;48.408;13.392;2022-10-30T12:54:04;17.80;;;5.03;;
69951;SDS011;60406;48.408;13.392;2022-10-30T13:04:57;22.80;;;5.93;;
69951;SDS011;60406;48.408;13.392;2022-10-30T13:15:26;15.93;;;6.43;;
69951;SDS011;60406;48.408;13.392;2022-10-30T13:20:29;13.70;;;6.07;;
69951;SDS011;60406;48.408;13.392;2022-10-30T13:25:34;19.00;;;5.95;;
69951;SDS011;60406;48.408;13.392;2022-10-30T13:30:43;17.52;;;5.55;;
69951;SDS011;60406;48.408;13.392;2022-10-30T13:52:05;13.93;;;5.40;;
69951;SDS011;60406;48.408;13.392;2022-10-30T13:57:22;22.73;;;6.05;;
69951;SDS011;60406;48.408;13.392;2022-10-30T14:13:16;17.92;;;6.20;;
69951;SDS011;60406;48.408;13.392;2022-10-30T14:18:25;23.23;;;6.90;;
69951;SDS011;60406;48.408;13.392;2022-10-30T14:23:42;21.52;;;6.70;;
69951;SDS011;60406;48.408;13.392;2022-10-30T14:28:43;21.60;;;5.97;;
69951;SDS011;60406;48.408;13.392;2022-10-30T14:38:59;19.38;;;7.22;;
69951;SDS011;60406;48.408;13.392;2022-10-30T14:49:27;14.48;;;5.75;;
69951;SDS011;60406;48.408;13.392;2022-10-30T15:16:12;18.30;;;6.03;;
69951;SDS011;60406;48.408;13.392;2022-10-30T15:21:17;20.40;;;5.80;;
69951;SDS011;60406;48.408;13.392;2022-10-30T15:26:20;21.77;;;6.60;;
69951;SDS011;60406;48.408;13.392;2022-10-30T15:31:23;32.23;;;7.47;;
69951;SDS011;60406;48.408;13.392;2022-10-30T15:36:32;25.02;;;8.02;;
69951;SDS011;60406;48.408;13.392;2022-10-30T15:41:37;19.52;;;7.13;;
69951;SDS011;60406;48.408;13.392;2022-10-30T15:46:45;18.35;;;6.43;;
69951;SDS011;60406;48.408;13.392;2022-10-30T15:51:47;17.85;;;6.30;;
69951;SDS011;60406;48.408;13.392;2022-10-30T15:56:48;19.98;;;7.22;;
69951;SDS011;60406;48.408;13.392;2022-10-30T16:01:52;26.75;;;7.28;;
69951;SDS011;60406;48.408;13.392;2022-10-30T16:11:57;21.70;;;8.35;;
69951;SDS011;60406;48.408;13.392;2022-10-30T16:16:59;20.08;;;7.32;;
69951;SDS011;60406;48.408;13.392;2022-10-30T16:21:59;24.45;;;8.02;;
69951;SDS011;60406;48.408;13.392;2022-10-30T16:27:14;20.02;;;8.70;;
69951;SDS011;60406;48.408;13.392;2022-10-30T16:32:18;27.38;;;10.85;;
69951;SDS011;60406;48.408;13.392;2022-10-30T16:37:21;19.92;;;8.80;;
69951;SDS011;60406;48.408;13.392;2022-10-30T16:42:24;19.48;;;9.68;;
69951;SDS011;60406;48.408;13.392;2022-10-30T16:47:25;26.00;;;8.55;;
69951;SDS011;60406;48.408;13.392;2022-10-30T16:52:32;20.15;;;9.82;;
69951;SDS011;60406;48.408;13.392;2022-10-30T16:57:34;28.00;;;11.10;;
69951;SDS011;60406;48.408;13.392;2022-10-30T17:02:36;31.50;;;11.63;;
69951;SDS011;60406;48.408;13.392;2022-10-30T17:07:52;24.42;;;12.75;;
69951;SDS011;60406;48.408;13.392;2022-10-30T17:13:24;27.33;;;13.80;;
69951;SDS011;60406;48.408;13.392;2022-10-30T17:18:27;30.17;;;15.52;;
69951;SDS011;60406;48.408;13.392;2022-10-30T17:23:28;28.58;;;17.90;;
69951;SDS011;60406;48.408;13.392;2022-10-30T17:28:32;25.85;;;13.85;;
69951;SDS011;60406;48.408;13.392;2022-10-30T17:33:35;25.60;;;12.52;;
69951;SDS011;60406;48.408;13.392;2022-10-30T17:38:36;27.52;;;11.20;;
69951;SDS011;60406;48.408;13.392;2022-10-30T17:43:50;19.17;;;9.77;;
69951;SDS011;60406;48.408;13.392;2022-10-30T17:48:52;23.38;;;10.50;;
69951;SDS011;60406;48.408;13.392;2022-10-30T17:53:53;30.83;;;13.88;;
69951;SDS011;60406;48.408;13.392;2022-10-30T17:58:54;39.47;;;16.20;;
69951;SDS011;60406;48.408;13.392;2022-10-30T18:03:55;31.70;;;15.38;;
69951;SDS011;60406;48.408;13.392;2022-10-30T18:08:56;35.20;;;15.75;;
69951;SDS011;60406;48.408;13.392;2022-10-30T18:13:57;43.67;;;21.42;;
69951;SDS011;60406;48.408;13.392;2022-10-30T18:18:57;44.70;;;22.13;;
69951;SDS011;60406;48.408;13.392;2022-10-30T18:23:58;49.63;;;21.60;;
69951;SDS011;60406;48.408;13.392;2022-10-30T18:28:59;39.80;;;20.75;;
69951;SDS011;60406;48.408;13.392;2022-10-30T18:34:00;57.33;;;28.23;;
69951;SDS011;60406;48.408;13.392;2022-10-30T18:39:01;33.47;;;17.92;;
69951;SDS011;60406;48.408;13.392;2022-10-30T18:44:02;43.33;;;17.90;;
69951;SDS011;60406;48.408;13.392;2022-10-30T18:49:03;29.92;;;15.43;;
69951;SDS011;60406;48.408;13.392;2022-10-30T18:54:10;54.25;;;29.85;;
69951;SDS011;60406;48.408;13.392;2022-10-30T18:59:13;47.00;;;26.50;;
69951;SDS011;60406;48.408;13.392;2022-10-30T19:04:14;49.78;;;27.65;;
69951;SDS011;60406;48.408;13.392;2022-10-30T19:09:15;45.78;;;22.23;;
69951;SDS011;60406;48.408;13.392;2022-10-30T19:14:16;40.88;;;22.60;;
69951;SDS011;60406;48.408;13.392;2022-10-30T19:19:17;39.92;;;22.00;;
69951;SDS011;60406;48.408;13.392;2022-10-30T19:24:18;47.38;;;26.20;;
69951;SDS011;60406;48.408;13.392;2022-10-30T19:29:19;41.92;;;21.13;;
69951;SDS011;60406;48.408;13.392;2022-10-30T19:34:20;31.75;;;17.73;;
69951;SDS011;60406;48.408;13.392;2022-10-30T19:39:20;31.48;;;18.67;;
69951;SDS011;60406;48.408;13.392;2022-10-30T19:44:22;33.97;;;16.17;;
69951;SDS011;60406;48.408;13.392;2022-10-30T19:49:22;28.05;;;17.75;;
69951;SDS011;60406;48.408;13.392;2022-10-30T19:54:23;34.67;;;17.75;;
69951;SDS011;60406;48.408;13.392;2022-10-30T19:59:24;35.28;;;20.40;;
69951;SDS011;60406;48.408;13.392;2022-10-30T20:04:25;24.17;;;16.25;;
69951;SDS011;60406;48.408;13.392;2022-10-30T20:09:28;25.85;;;15.25;;
69951;SDS011;60406;48.408;13.392;2022-10-30T20:14:29;43.53;;;24.43;;
69951;SDS011;60406;48.408;13.392;2022-10-30T20:19:30;39.33;;;23.52;;
69951;SDS011;60406;48.408;13.392;2022-10-30T20:24:31;34.67;;;17.95;;
69951;SDS011;60406;48.408;13.392;2022-10-30T20:29:32;25.67;;;17.15;;
69951;SDS011;60406;48.408;13.392;2022-10-30T20:34:33;30.38;;;18.60;;
69951;SDS011;60406;48.408;13.392;2022-10-30T20:39:34;36.95;;;18.90;;
69951;SDS011;60406;48.408;13.392;2022-10-30T20:44:35;37.58;;;26.20;;
69951;SDS011;60406;48.408;13.392;2022-10-30T20:49:36;35.42;;;22.45;;
69951;SDS011;60406;48.408;13.392;2022-10-30T20:54:37;86.55;;;27.42;;
69951;SDS011;60406;48.408;13.392;2022-10-30T20:59:38;79.05;;;26.30;;
69951;SDS011;60406;48.408;13.392;2022-10-30T21:04:39;58.33;;;20.70;;
69951;SDS011;60406;48.408;13.392;2022-10-30T21:09:40;148.35;;;24.08;;
69951;SDS011;60406;48.408;13.392;2022-10-30T21:14:40;60.30;;;37.97;;
69951;SDS011;60406;48.408;13.392;2022-10-30T21:19:41;41.55;;;25.05;;
69951;SDS011;60406;48.408;13.392;2022-10-30T21:24:42;38.72;;;24.83;;
69951;SDS011;60406;48.408;13.392;2022-10-30T21:29:43;42.17;;;24.42;;
69951;SDS011;60406;48.408;13.392;2022-10-30T21:34:44;47.40;;;25.33;;
69951;SDS011;60406;48.408;13.392;2022-10-30T21:39:45;50.78;;;27.45;;
69951;SDS011;60406;48.408;13.392;2022-10-30T21:44:46;161.70;;;29.55;;
69951;SDS011;60406;48.408;13.392;2022-10-30T21:49:46;135.88;;;25.60;;
69951;SDS011;60406;48.408;13.392;2022-10-30T21:54:47;130.63;;;27.30;;
69951;SDS011;60406;48.408;13.392;2022-10-30T21:59:48;123.70;;;26.13;;
69951;SDS011;60406;48.408;13.392;2022-10-30T22:04:49;86.43;;;22.20;;
69951;SDS011;60406;48.408;13.392;2022-10-30T22:09:50;68.38;;;22.30;;
69951;SDS011;60406;48.408;13.392;2022-10-30T22:14:51;103.32;;;23.38;;
69951;SDS011;60406;48.408;13.392;2022-10-30T22:19:52;150.00;;;29.70;;
69951;SDS011;60406;48.408;13.392;2022-10-30T22:24:53;151.73;;;24.73;;
69951;SDS011;60406;48.408;13.392;2022-10-30T22:29:53;84.40;;;23.88;;
69951;SDS011;60406;48.408;13.392;2022-10-30T22:34:54;43.83;;;17.00;;
69951;SDS011;60406;48.408;13.392;2022-10-30T22:39:55;71.88;;;25.15;;
69951;SDS011;60406;48.408;13.392;2022-10-30T22:44:56;76.10;;;24.85;;
69951;SDS011;60406;48.408;13.392;2022-10-30T22:49:57;73.90;;;26.45;;
69951;SDS011;60406;48.408;13.392;2022-10-30T22:54:58;91.05;;;27.35;;
69951;SDS011;60406;48.408;13.392;2022-10-30T22:59:59;85.88;;;27.55;;
69951;SDS011;60406;48.408;13.392;2022-10-30T23:05:00;113.97;;;27.67;;
69951;SDS011;60406;48.408;13.392;2022-10-30T23:10:01;102.20;;;26.83;;
69951;SDS011;60406;48.408;13.392;2022-10-30T23:15:02;73.00;;;25.25;;
69951;SDS011;60406;48.408;13.392;2022-10-30T23:20:04;59.03;;;23.75;;
69951;SDS011;60406;48.408;13.392;2022-10-30T23:25:06;55.08;;;25.55;;
69951;SDS011;60406;48.408;13.392;2022-10-30T23:30:07;63.03;;;26.50;;
69951;SDS011;60406;48.408;13.392;2022-10-30T23:35:08;50.28;;;21.05;;
69951;SDS011;60406;48.408;13.392;2022-10-30T23:40:09;61.97;;;22.50;;
69951;SDS011;60406;48.408;13.392;2022-10-30T23:45:10;57.53;;;23.60;;
69951;SDS011;60406;48.408;13.392;2022-10-30T23:50:11;37.95;;;21.02;;
69951;SDS011;60406;48.408;13.392;2022-10-30T23:55:12;37.25;;;21.85;;
